aviador You're here:

PATQ Decoded Metar

ATQASUK BURNELL in AK, USA
Report Time2017-11-24 02:56:00
UTC Time2017-11-24 03:47:16
Flight Rules ifr IFR
Wind230° at 09 kt
W.Decomp.*RWY 24: 7.8 kt HW 4.5 kt LCW
W.Rank230° ranks 16
Current wind is below 230° avg. (9.6)
Visibility9999 m
Phenomena:N/A
Clouds:Overcast 005 Hf
Expected CloudBase > 400 ft AGL from Temp-Dew spread
Ceiling500 ft
Temp-5°C (ISA -20)
Dew Point-6°C (93% RH)
AAT-10.9°C
QNH988 hPa
Density Alt-1,434 ft
Elevation95 ft
Report Wrong Elevation
Raw Report
PATQ 240256Z AUTO 23009KT 10SM OVC005 M05/M06 A2918=

Extra information for PATQ:More info

Metar Taf Metar & Taf Last 4 Metars F.Rules Stats Wind Profile Meteogram Temp Stats Airport Information Weather charts Add Link Nearby VenuesMetar ALERT Operation Metar Decoded Social comments

AIRNAV info for PATQ